sensor_id;sensor_type;location;lat;lon;timestamp;P1;durP1;ratioP1;P2;durP2;ratioP2
38529;SDS011;24301;54.332;48.386;2023-03-01T00:01:28;12.10;;;6.77;;
38529;SDS011;24301;54.332;48.386;2023-03-01T00:03:56;12.57;;;6.63;;
38529;SDS011;24301;54.332;48.386;2023-03-01T00:06:24;10.80;;;6.03;;
38529;SDS011;24301;54.332;48.386;2023-03-01T00:08:50;12.33;;;8.00;;
38529;SDS011;24301;54.332;48.386;2023-03-01T00:11:17;10.13;;;5.40;;
38529;SDS011;24301;54.332;48.386;2023-03-01T00:13:44;11.00;;;6.13;;
38529;SDS011;24301;54.332;48.386;2023-03-01T00:16:12;12.33;;;6.70;;
38529;SDS011;24301;54.332;48.386;2023-03-01T00:18:42;8.47;;;5.50;;
38529;SDS011;24301;54.332;48.386;2023-03-01T00:21:08;9.10;;;5.77;;
38529;SDS011;24301;54.332;48.386;2023-03-01T00:23:34;10.30;;;5.73;;
38529;SDS011;24301;54.332;48.386;2023-03-01T00:26:00;8.30;;;5.47;;
38529;SDS011;24301;54.332;48.386;2023-03-01T00:28:26;9.13;;;5.63;;
38529;SDS011;24301;54.332;48.386;2023-03-01T00:30:52;9.20;;;5.40;;
38529;SDS011;24301;54.332;48.386;2023-03-01T00:33:18;10.43;;;6.67;;
38529;SDS011;24301;54.332;48.386;2023-03-01T00:35:44;9.03;;;5.43;;
38529;SDS011;24301;54.332;48.386;2023-03-01T00:38:10;9.97;;;5.70;;
38529;SDS011;24301;54.332;48.386;2023-03-01T00:40:36;9.43;;;5.47;;
38529;SDS011;24301;54.332;48.386;2023-03-01T00:43:02;10.77;;;5.87;;
38529;SDS011;24301;54.332;48.386;2023-03-01T00:45:29;8.60;;;5.03;;
38529;SDS011;24301;54.332;48.386;2023-03-01T00:47:57;8.40;;;5.57;;
38529;SDS011;24301;54.332;48.386;2023-03-01T00:50:23;10.07;;;6.70;;
38529;SDS011;24301;54.332;48.386;2023-03-01T00:52:55;11.07;;;6.37;;
38529;SDS011;24301;54.332;48.386;2023-03-01T00:55:21;9.00;;;5.97;;
38529;SDS011;24301;54.332;48.386;2023-03-01T00:57:47;10.20;;;5.93;;
38529;SDS011;24301;54.332;48.386;2023-03-01T01:00:13;9.60;;;5.97;;
38529;SDS011;24301;54.332;48.386;2023-03-01T01:02:40;8.80;;;5.00;;
38529;SDS011;24301;54.332;48.386;2023-03-01T01:05:06;12.17;;;6.13;;
38529;SDS011;24301;54.332;48.386;2023-03-01T01:07:32;7.90;;;5.07;;
38529;SDS011;24301;54.332;48.386;2023-03-01T01:09:58;9.70;;;5.47;;
38529;SDS011;24301;54.332;48.386;2023-03-01T01:12:24;9.60;;;5.97;;
38529;SDS011;24301;54.332;48.386;2023-03-01T01:14:50;10.93;;;5.80;;
38529;SDS011;24301;54.332;48.386;2023-03-01T01:17:16;8.20;;;5.23;;
38529;SDS011;24301;54.332;48.386;2023-03-01T01:19:41;9.33;;;5.60;;
38529;SDS011;24301;54.332;48.386;2023-03-01T01:22:07;11.13;;;6.27;;
38529;SDS011;24301;54.332;48.386;2023-03-01T01:24:33;11.00;;;5.67;;
38529;SDS011;24301;54.332;48.386;2023-03-01T01:26:59;10.23;;;5.87;;
38529;SDS011;24301;54.332;48.386;2023-03-01T01:29:25;10.30;;;6.40;;
38529;SDS011;24301;54.332;48.386;2023-03-01T01:31:51;10.27;;;5.70;;
38529;SDS011;24301;54.332;48.386;2023-03-01T01:34:20;10.60;;;6.17;;
38529;SDS011;24301;54.332;48.386;2023-03-01T01:36:50;10.57;;;6.70;;
38529;SDS011;24301;54.332;48.386;2023-03-01T01:39:21;11.48;;;6.57;;
38529;SDS011;24301;54.332;48.386;2023-03-01T01:41:47;11.60;;;6.63;;
38529;SDS011;24301;54.332;48.386;2023-03-01T01:44:20;10.97;;;6.53;;
38529;SDS011;24301;54.332;48.386;2023-03-01T01:49:42;12.00;;;5.80;;
38529;SDS011;24301;54.332;48.386;2023-03-01T01:52:17;10.93;;;5.93;;
38529;SDS011;24301;54.332;48.386;2023-03-01T01:54:50;9.03;;;5.67;;
38529;SDS011;24301;54.332;48.386;2023-03-01T01:57:18;11.70;;;7.03;;
38529;SDS011;24301;54.332;48.386;2023-03-01T01:59:50;8.73;;;5.17;;
38529;SDS011;24301;54.332;48.386;2023-03-01T02:02:18;15.43;;;8.57;;
38529;SDS011;24301;54.332;48.386;2023-03-01T02:04:45;10.97;;;6.37;;
38529;SDS011;24301;54.332;48.386;2023-03-01T02:07:14;10.20;;;6.03;;
38529;SDS011;24301;54.332;48.386;2023-03-01T02:09:45;11.63;;;7.47;;
38529;SDS011;24301;54.332;48.386;2023-03-01T02:12:13;10.23;;;6.00;;
38529;SDS011;24301;54.332;48.386;2023-03-01T02:14:42;11.27;;;6.20;;
38529;SDS011;24301;54.332;48.386;2023-03-01T02:17:09;13.27;;;6.60;;
38529;SDS011;24301;54.332;48.386;2023-03-01T02:22:15;12.07;;;6.23;;
38529;SDS011;24301;54.332;48.386;2023-03-01T02:24:51;8.13;;;4.80;;
38529;SDS011;24301;54.332;48.386;2023-03-01T02:27:38;10.37;;;6.43;;
38529;SDS011;24301;54.332;48.386;2023-03-01T02:30:14;10.90;;;7.13;;
38529;SDS011;24301;54.332;48.386;2023-03-01T02:32:41;10.93;;;6.23;;
38529;SDS011;24301;54.332;48.386;2023-03-01T02:35:09;10.47;;;5.43;;
38529;SDS011;24301;54.332;48.386;2023-03-01T02:37:39;9.33;;;5.70;;
38529;SDS011;24301;54.332;48.386;2023-03-01T02:40:07;14.57;;;7.47;;
38529;SDS011;24301;54.332;48.386;2023-03-01T02:42:57;9.47;;;5.50;;
38529;SDS011;24301;54.332;48.386;2023-03-01T02:45:25;9.17;;;5.70;;
38529;SDS011;24301;54.332;48.386;2023-03-01T02:47:55;11.00;;;6.10;;
38529;SDS011;24301;54.332;48.386;2023-03-01T02:55:41;10.33;;;6.20;;
38529;SDS011;24301;54.332;48.386;2023-03-01T02:58:07;10.00;;;5.90;;
38529;SDS011;24301;54.332;48.386;2023-03-01T03:00:36;10.83;;;6.40;;
38529;SDS011;24301;54.332;48.386;2023-03-01T03:03:05;12.67;;;6.83;;
38529;SDS011;24301;54.332;48.386;2023-03-01T03:05:32;10.70;;;6.33;;
38529;SDS011;24301;54.332;48.386;2023-03-01T03:07:59;10.83;;;5.60;;
38529;SDS011;24301;54.332;48.386;2023-03-01T03:10:33;9.43;;;5.67;;
38529;SDS011;24301;54.332;48.386;2023-03-01T03:13:03;9.18;;;5.50;;
38529;SDS011;24301;54.332;48.386;2023-03-01T03:15:33;10.03;;;5.90;;
38529;SDS011;24301;54.332;48.386;2023-03-01T03:18:08;8.63;;;5.43;;
38529;SDS011;24301;54.332;48.386;2023-03-01T03:20:38;11.88;;;5.93;;
38529;SDS011;24301;54.332;48.386;2023-03-01T03:23:06;9.77;;;6.03;;
38529;SDS011;24301;54.332;48.386;2023-03-01T03:25:32;9.77;;;5.33;;
38529;SDS011;24301;54.332;48.386;2023-03-01T03:27:58;7.73;;;5.63;;
38529;SDS011;24301;54.332;48.386;2023-03-01T03:30:28;10.53;;;6.30;;
38529;SDS011;24301;54.332;48.386;2023-03-01T03:32:55;8.93;;;5.30;;
38529;SDS011;24301;54.332;48.386;2023-03-01T03:35:23;10.53;;;5.70;;
38529;SDS011;24301;54.332;48.386;2023-03-01T03:38:13;9.57;;;5.23;;
38529;SDS011;24301;54.332;48.386;2023-03-01T03:41:02;8.60;;;5.63;;
38529;SDS011;24301;54.332;48.386;2023-03-01T03:43:31;8.00;;;4.93;;
38529;SDS011;24301;54.332;48.386;2023-03-01T03:45:58;9.67;;;4.63;;
38529;SDS011;24301;54.332;48.386;2023-03-01T03:48:25;8.73;;;5.17;;
38529;SDS011;24301;54.332;48.386;2023-03-01T03:50:53;9.53;;;4.77;;
38529;SDS011;24301;54.332;48.386;2023-03-01T03:53:22;7.87;;;5.07;;
38529;SDS011;24301;54.332;48.386;2023-03-01T03:55:49;6.70;;;4.63;;
38529;SDS011;24301;54.332;48.386;2023-03-01T03:58:17;6.90;;;4.27;;
38529;SDS011;24301;54.332;48.386;2023-03-01T04:00:45;7.93;;;5.27;;
38529;SDS011;24301;54.332;48.386;2023-03-01T04:03:13;6.57;;;4.47;;
38529;SDS011;24301;54.332;48.386;2023-03-01T04:05:41;5.23;;;3.73;;
38529;SDS011;24301;54.332;48.386;2023-03-01T04:08:07;8.07;;;5.00;;
38529;SDS011;24301;54.332;48.386;2023-03-01T04:10:35;7.43;;;4.43;;
38529;SDS011;24301;54.332;48.386;2023-03-01T04:13:06;9.23;;;4.83;;
38529;SDS011;24301;54.332;48.386;2023-03-01T04:15:33;7.17;;;4.03;;
38529;SDS011;24301;54.332;48.386;2023-03-01T04:17:59;6.90;;;3.80;;
38529;SDS011;24301;54.332;48.386;2023-03-01T04:20:29;6.33;;;3.50;;
38529;SDS011;24301;54.332;48.386;2023-03-01T04:23:03;7.65;;;4.22;;
38529;SDS011;24301;54.332;48.386;2023-03-01T04:25:47;9.00;;;5.23;;
38529;SDS011;24301;54.332;48.386;2023-03-01T04:28:22;6.80;;;4.60;;
38529;SDS011;24301;54.332;48.386;2023-03-01T04:31:01;9.60;;;4.10;;
38529;SDS011;24301;54.332;48.386;2023-03-01T04:33:39;5.70;;;3.50;;
38529;SDS011;24301;54.332;48.386;2023-03-01T04:36:06;5.97;;;3.57;;
38529;SDS011;24301;54.332;48.386;2023-03-01T04:38:34;5.90;;;4.37;;
38529;SDS011;24301;54.332;48.386;2023-03-01T04:41:03;6.23;;;3.83;;
38529;SDS011;24301;54.332;48.386;2023-03-01T04:43:30;7.60;;;3.53;;
38529;SDS011;24301;54.332;48.386;2023-03-01T04:45:59;6.10;;;3.53;;
38529;SDS011;24301;54.332;48.386;2023-03-01T04:48:31;4.57;;;2.97;;
38529;SDS011;24301;54.332;48.386;2023-03-01T04:50:58;5.23;;;3.60;;
38529;SDS011;24301;54.332;48.386;2023-03-01T04:53:25;7.57;;;3.27;;
38529;SDS011;24301;54.332;48.386;2023-03-01T04:55:53;7.73;;;3.73;;
38529;SDS011;24301;54.332;48.386;2023-03-01T04:58:21;5.27;;;3.03;;
38529;SDS011;24301;54.332;48.386;2023-03-01T05:00:48;5.90;;;3.20;;
38529;SDS011;24301;54.332;48.386;2023-03-01T05:03:14;4.23;;;2.70;;
38529;SDS011;24301;54.332;48.386;2023-03-01T05:05:44;5.10;;;2.80;;
38529;SDS011;24301;54.332;48.386;2023-03-01T05:08:12;3.50;;;2.33;;
38529;SDS011;24301;54.332;48.386;2023-03-01T05:10:43;4.00;;;2.13;;
38529;SDS011;24301;54.332;48.386;2023-03-01T05:13:17;3.23;;;1.73;;
38529;SDS011;24301;54.332;48.386;2023-03-01T05:15:48;4.00;;;2.23;;
38529;SDS011;24301;54.332;48.386;2023-03-01T05:18:25;4.20;;;1.87;;
38529;SDS011;24301;54.332;48.386;2023-03-01T05:20:52;2.30;;;1.60;;
38529;SDS011;24301;54.332;48.386;2023-03-01T05:23:22;3.20;;;1.70;;
38529;SDS011;24301;54.332;48.386;2023-03-01T05:25:48;1.93;;;1.43;;
38529;SDS011;24301;54.332;48.386;2023-03-01T05:28:14;2.63;;;1.73;;
38529;SDS011;24301;54.332;48.386;2023-03-01T05:30:40;3.53;;;1.60;;
38529;SDS011;24301;54.332;48.386;2023-03-01T05:33:06;4.13;;;1.87;;
38529;SDS011;24301;54.332;48.386;2023-03-01T05:35:42;3.53;;;1.80;;
38529;SDS011;24301;54.332;48.386;2023-03-01T05:38:09;2.57;;;1.70;;
38529;SDS011;24301;54.332;48.386;2023-03-01T05:40:39;4.13;;;1.60;;
38529;SDS011;24301;54.332;48.386;2023-03-01T05:43:09;4.20;;;2.57;;
38529;SDS011;24301;54.332;48.386;2023-03-01T05:45:36;3.50;;;1.90;;
38529;SDS011;24301;54.332;48.386;2023-03-01T05:48:03;3.70;;;2.43;;
38529;SDS011;24301;54.332;48.386;2023-03-01T05:50:32;4.10;;;2.20;;
38529;SDS011;24301;54.332;48.386;2023-03-01T05:53:00;5.43;;;2.73;;
38529;SDS011;24301;54.332;48.386;2023-03-01T05:55:28;3.37;;;1.90;;
38529;SDS011;24301;54.332;48.386;2023-03-01T05:57:59;3.60;;;1.90;;
38529;SDS011;24301;54.332;48.386;2023-03-01T06:00:26;7.07;;;2.17;;
38529;SDS011;24301;54.332;48.386;2023-03-01T06:02:53;2.43;;;1.73;;
38529;SDS011;24301;54.332;48.386;2023-03-01T06:05:20;5.27;;;2.10;;
38529;SDS011;24301;54.332;48.386;2023-03-01T06:07:46;2.80;;;1.53;;
38529;SDS011;24301;54.332;48.386;2023-03-01T06:10:12;2.23;;;1.60;;
38529;SDS011;24301;54.332;48.386;2023-03-01T06:12:38;3.10;;;1.60;;
38529;SDS011;24301;54.332;48.386;2023-03-01T06:15:06;3.57;;;1.67;;
38529;SDS011;24301;54.332;48.386;2023-03-01T06:17:35;3.00;;;1.77;;
38529;SDS011;24301;54.332;48.386;2023-03-01T06:20:06;4.30;;;2.03;;
38529;SDS011;24301;54.332;48.386;2023-03-01T06:22:34;2.63;;;1.83;;
38529;SDS011;24301;54.332;48.386;2023-03-01T06:25:00;5.47;;;2.67;;
38529;SDS011;24301;54.332;48.386;2023-03-01T06:27:28;3.90;;;1.73;;
38529;SDS011;24301;54.332;48.386;2023-03-01T06:29:54;4.37;;;2.53;;
38529;SDS011;24301;54.332;48.386;2023-03-01T06:32:20;2.77;;;2.00;;
38529;SDS011;24301;54.332;48.386;2023-03-01T06:34:45;2.27;;;1.30;;
38529;SDS011;24301;54.332;48.386;2023-03-01T06:37:11;2.03;;;1.43;;
38529;SDS011;24301;54.332;48.386;2023-03-01T06:39:37;2.90;;;1.73;;
38529;SDS011;24301;54.332;48.386;2023-03-01T06:42:03;6.23;;;1.60;;
38529;SDS011;24301;54.332;48.386;2023-03-01T06:44:29;2.23;;;1.37;;
38529;SDS011;24301;54.332;48.386;2023-03-01T06:46:55;2.23;;;1.40;;
38529;SDS011;24301;54.332;48.386;2023-03-01T06:49:20;2.77;;;1.73;;
38529;SDS011;24301;54.332;48.386;2023-03-01T06:51:46;3.20;;;1.63;;
38529;SDS011;24301;54.332;48.386;2023-03-01T06:54:12;1.67;;;1.20;;
38529;SDS011;24301;54.332;48.386;2023-03-01T06:56:38;2.57;;;1.40;;
38529;SDS011;24301;54.332;48.386;2023-03-01T06:59:04;4.07;;;1.77;;
38529;SDS011;24301;54.332;48.386;2023-03-01T07:01:30;3.23;;;1.20;;
38529;SDS011;24301;54.332;48.386;2023-03-01T07:03:56;1.97;;;1.20;;
38529;SDS011;24301;54.332;48.386;2023-03-01T07:06:22;2.57;;;1.20;;
38529;SDS011;24301;54.332;48.386;2023-03-01T07:08:49;2.47;;;1.70;;
38529;SDS011;24301;54.332;48.386;2023-03-01T07:11:15;3.53;;;1.53;;
38529;SDS011;24301;54.332;48.386;2023-03-01T07:13:41;2.33;;;1.30;;
38529;SDS011;24301;54.332;48.386;2023-03-01T07:16:07;3.57;;;1.63;;
38529;SDS011;24301;54.332;48.386;2023-03-01T07:18:33;2.80;;;1.00;;
38529;SDS011;24301;54.332;48.386;2023-03-01T07:21:09;2.03;;;1.10;;
38529;SDS011;24301;54.332;48.386;2023-03-01T07:23:37;3.50;;;1.20;;
38529;SDS011;24301;54.332;48.386;2023-03-01T07:26:03;3.37;;;1.40;;
38529;SDS011;24301;54.332;48.386;2023-03-01T07:28:29;3.67;;;1.23;;
38529;SDS011;24301;54.332;48.386;2023-03-01T07:31:00;1.27;;;1.00;;
38529;SDS011;24301;54.332;48.386;2023-03-01T07:33:27;1.97;;;1.20;;
38529;SDS011;24301;54.332;48.386;2023-03-01T07:36:00;2.30;;;1.10;;
38529;SDS011;24301;54.332;48.386;2023-03-01T07:38:27;3.43;;;1.00;;
38529;SDS011;24301;54.332;48.386;2023-03-01T07:40:57;3.73;;;1.20;;
38529;SDS011;24301;54.332;48.386;2023-03-01T07:43:24;2.70;;;1.50;;
38529;SDS011;24301;54.332;48.386;2023-03-01T07:45:50;2.10;;;1.40;;
38529;SDS011;24301;54.332;48.386;2023-03-01T07:48:16;2.77;;;1.00;;
38529;SDS011;24301;54.332;48.386;2023-03-01T07:50:42;1.90;;;1.10;;
38529;SDS011;24301;54.332;48.386;2023-03-01T07:53:09;3.00;;;1.63;;
38529;SDS011;24301;54.332;48.386;2023-03-01T07:55:35;3.27;;;1.20;;
38529;SDS011;24301;54.332;48.386;2023-03-01T07:58:01;3.20;;;1.50;;
38529;SDS011;24301;54.332;48.386;2023-03-01T08:00:27;3.20;;;1.20;;
38529;SDS011;24301;54.332;48.386;2023-03-01T08:02:53;3.57;;;1.60;;
38529;SDS011;24301;54.332;48.386;2023-03-01T08:05:19;3.73;;;1.50;;
38529;SDS011;24301;54.332;48.386;2023-03-01T08:07:47;3.77;;;1.37;;
38529;SDS011;24301;54.332;48.386;2023-03-01T08:10:13;3.23;;;1.40;;
38529;SDS011;24301;54.332;48.386;2023-03-01T08:12:39;2.63;;;1.50;;
38529;SDS011;24301;54.332;48.386;2023-03-01T08:15:05;3.13;;;1.40;;
38529;SDS011;24301;54.332;48.386;2023-03-01T08:17:31;2.97;;;1.10;;
38529;SDS011;24301;54.332;48.386;2023-03-01T08:19:57;2.43;;;1.07;;
38529;SDS011;24301;54.332;48.386;2023-03-01T08:22:23;3.20;;;1.40;;
38529;SDS011;24301;54.332;48.386;2023-03-01T08:24:49;2.37;;;1.67;;
38529;SDS011;24301;54.332;48.386;2023-03-01T08:27:15;3.50;;;1.47;;
38529;SDS011;24301;54.332;48.386;2023-03-01T08:29:41;4.37;;;1.20;;
38529;SDS011;24301;54.332;48.386;2023-03-01T08:32:07;2.40;;;1.20;;
38529;SDS011;24301;54.332;48.386;2023-03-01T08:34:33;10.50;;;1.60;;
38529;SDS011;24301;54.332;48.386;2023-03-01T08:37:00;2.90;;;1.47;;
38529;SDS011;24301;54.332;48.386;2023-03-01T08:39:27;4.17;;;1.60;;
38529;SDS011;24301;54.332;48.386;2023-03-01T08:41:52;2.07;;;1.33;;
38529;SDS011;24301;54.332;48.386;2023-03-01T08:44:18;2.33;;;1.00;;
38529;SDS011;24301;54.332;48.386;2023-03-01T08:46:46;4.13;;;1.50;;
38529;SDS011;24301;54.332;48.386;2023-03-01T08:49:13;5.37;;;1.30;;
38529;SDS011;24301;54.332;48.386;2023-03-01T08:51:41;2.90;;;1.33;;
38529;SDS011;24301;54.332;48.386;2023-03-01T08:54:26;4.90;;;1.57;;
38529;SDS011;24301;54.332;48.386;2023-03-01T08:56:51;2.88;;;1.80;;
38529;SDS011;24301;54.332;48.386;2023-03-01T08:59:17;3.17;;;1.63;;
38529;SDS011;24301;54.332;48.386;2023-03-01T09:01:44;4.50;;;1.80;;
38529;SDS011;24301;54.332;48.386;2023-03-01T09:04:10;2.93;;;1.20;;
38529;SDS011;24301;54.332;48.386;2023-03-01T09:06:40;2.67;;;1.30;;
38529;SDS011;24301;54.332;48.386;2023-03-01T09:09:06;1.20;;;1.10;;
38529;SDS011;24301;54.332;48.386;2023-03-01T09:11:37;4.60;;;1.83;;
38529;SDS011;24301;54.332;48.386;2023-03-01T09:14:04;4.20;;;1.70;;
38529;SDS011;24301;54.332;48.386;2023-03-01T09:16:30;3.10;;;1.33;;
38529;SDS011;24301;54.332;48.386;2023-03-01T09:19:01;4.07;;;1.63;;
38529;SDS011;24301;54.332;48.386;2023-03-01T09:21:28;3.93;;;1.70;;
38529;SDS011;24301;54.332;48.386;2023-03-01T09:23:55;6.13;;;2.03;;
38529;SDS011;24301;54.332;48.386;2023-03-01T09:26:22;7.33;;;2.20;;
38529;SDS011;24301;54.332;48.386;2023-03-01T09:28:50;5.73;;;2.13;;
38529;SDS011;24301;54.332;48.386;2023-03-01T09:31:19;3.00;;;1.40;;
38529;SDS011;24301;54.332;48.386;2023-03-01T09:33:46;3.67;;;1.23;;
38529;SDS011;24301;54.332;48.386;2023-03-01T09:36:15;4.40;;;1.20;;
38529;SDS011;24301;54.332;48.386;2023-03-01T09:38:42;5.83;;;1.43;;
38529;SDS011;24301;54.332;48.386;2023-03-01T09:43:50;3.07;;;2.10;;
38529;SDS011;24301;54.332;48.386;2023-03-01T09:46:40;3.40;;;1.25;;
38529;SDS011;24301;54.332;48.386;2023-03-01T09:49:15;5.87;;;1.73;;
38529;SDS011;24301;54.332;48.386;2023-03-01T09:51:53;5.43;;;2.63;;
38529;SDS011;24301;54.332;48.386;2023-03-01T09:54:38;5.37;;;2.30;;
38529;SDS011;24301;54.332;48.386;2023-03-01T09:57:20;2.63;;;1.53;;
38529;SDS011;24301;54.332;48.386;2023-03-01T10:02:43;1.33;;;1.20;;
38529;SDS011;24301;54.332;48.386;2023-03-01T10:10:46;13.37;;;3.17;;
38529;SDS011;24301;54.332;48.386;2023-03-01T10:13:34;6.00;;;1.70;;
38529;SDS011;24301;54.332;48.386;2023-03-01T10:24:48;4.80;;;1.77;;
38529;SDS011;24301;54.332;48.386;2023-03-01T10:27:23;4.90;;;1.87;;
38529;SDS011;24301;54.332;48.386;2023-03-01T10:32:32;3.33;;;1.43;;
38529;SDS011;24301;54.332;48.386;2023-03-01T10:34:58;3.93;;;1.53;;
38529;SDS011;24301;54.332;48.386;2023-03-01T10:37:24;4.80;;;2.13;;
38529;SDS011;24301;54.332;48.386;2023-03-01T10:39:56;3.30;;;1.90;;
38529;SDS011;24301;54.332;48.386;2023-03-01T10:42:55;5.37;;;1.90;;
38529;SDS011;24301;54.332;48.386;2023-03-01T10:48:04;3.53;;;1.60;;
38529;SDS011;24301;54.332;48.386;2023-03-01T10:50:35;3.77;;;1.70;;
38529;SDS011;24301;54.332;48.386;2023-03-01T10:53:03;4.73;;;2.77;;
38529;SDS011;24301;54.332;48.386;2023-03-01T10:58:36;2.93;;;2.00;;
38529;SDS011;24301;54.332;48.386;2023-03-01T11:00:56;4.70;;;1.63;;
38529;SDS011;24301;54.332;48.386;2023-03-01T11:03:43;3.67;;;1.40;;
38529;SDS011;24301;54.332;48.386;2023-03-01T11:11:30;4.40;;;1.65;;
38529;SDS011;24301;54.332;48.386;2023-03-01T11:16:31;3.10;;;1.20;;
38529;SDS011;24301;54.332;48.386;2023-03-01T11:24:30;3.43;;;1.70;;
38529;SDS011;24301;54.332;48.386;2023-03-01T11:27:04;3.90;;;1.63;;
38529;SDS011;24301;54.332;48.386;2023-03-01T11:29:39;4.47;;;1.30;;
38529;SDS011;24301;54.332;48.386;2023-03-01T11:32:13;1.80;;;1.20;;
38529;SDS011;24301;54.332;48.386;2023-03-01T11:34:42;2.90;;;1.37;;
38529;SDS011;24301;54.332;48.386;2023-03-01T11:37:16;4.13;;;1.40;;
38529;SDS011;24301;54.332;48.386;2023-03-01T11:40:05;3.17;;;1.30;;
38529;SDS011;24301;54.332;48.386;2023-03-01T11:42:50;4.53;;;1.67;;
38529;SDS011;24301;54.332;48.386;2023-03-01T11:45:17;4.10;;;1.40;;
38529;SDS011;24301;54.332;48.386;2023-03-01T11:48:07;9.27;;;2.90;;
38529;SDS011;24301;54.332;48.386;2023-03-01T11:51:16;6.67;;;1.73;;
38529;SDS011;24301;54.332;48.386;2023-03-01T11:56:28;2.67;;;1.10;;
38529;SDS011;24301;54.332;48.386;2023-03-01T12:01:42;2.93;;;1.50;;
38529;SDS011;24301;54.332;48.386;2023-03-01T12:07:37;4.53;;;1.63;;
38529;SDS011;24301;54.332;48.386;2023-03-01T12:13:23;6.87;;;2.60;;
38529;SDS011;24301;54.332;48.386;2023-03-01T12:16:21;2.50;;;1.30;;
38529;SDS011;24301;54.332;48.386;2023-03-01T12:25:13;4.03;;;1.60;;
38529;SDS011;24301;54.332;48.386;2023-03-01T12:33:39;1.57;;;1.37;;
38529;SDS011;24301;54.332;48.386;2023-03-01T12:39:03;2.23;;;1.60;;
38529;SDS011;24301;54.332;48.386;2023-03-01T12:47:19;7.60;;;2.20;;
38529;SDS011;24301;54.332;48.386;2023-03-01T12:52:46;3.43;;;2.23;;
38529;SDS011;24301;54.332;48.386;2023-03-01T12:55:31;2.37;;;1.73;;
38529;SDS011;24301;54.332;48.386;2023-03-01T12:58:20;3.03;;;1.40;;
38529;SDS011;24301;54.332;48.386;2023-03-01T13:01:40;3.07;;;1.60;;
38529;SDS011;24301;54.332;48.386;2023-03-01T13:07:58;2.40;;;1.30;;
38529;SDS011;24301;54.332;48.386;2023-03-01T13:10:43;5.23;;;2.30;;
38529;SDS011;24301;54.332;48.386;2023-03-01T13:13:29;2.07;;;1.23;;
38529;SDS011;24301;54.332;48.386;2023-03-01T13:16:16;5.13;;;1.20;;
38529;SDS011;24301;54.332;48.386;2023-03-01T13:19:31;4.33;;;1.83;;
38529;SDS011;24301;54.332;48.386;2023-03-01T13:25:01;4.30;;;2.07;;
38529;SDS011;24301;54.332;48.386;2023-03-01T13:27:41;4.13;;;1.53;;
38529;SDS011;24301;54.332;48.386;2023-03-01T13:36:05;3.37;;;1.20;;
38529;SDS011;24301;54.332;48.386;2023-03-01T13:39:33;4.73;;;1.50;;
38529;SDS011;24301;54.332;48.386;2023-03-01T13:48:33;3.40;;;1.45;;
38529;SDS011;24301;54.332;48.386;2023-03-01T13:53:59;2.42;;;1.40;;
38529;SDS011;24301;54.332;48.386;2023-03-01T14:02:30;3.87;;;1.60;;
38529;SDS011;24301;54.332;48.386;2023-03-01T14:07:51;8.13;;;2.77;;
38529;SDS011;24301;54.332;48.386;2023-03-01T14:10:20;9.40;;;3.10;;
38529;SDS011;24301;54.332;48.386;2023-03-01T14:13:00;6.40;;;2.60;;
38529;SDS011;24301;54.332;48.386;2023-03-01T14:21:27;9.87;;;4.23;;
38529;SDS011;24301;54.332;48.386;2023-03-01T14:30:04;8.80;;;3.80;;
38529;SDS011;24301;54.332;48.386;2023-03-01T14:32:40;7.00;;;3.00;;
38529;SDS011;24301;54.332;48.386;2023-03-01T14:35:27;10.63;;;4.00;;
38529;SDS011;24301;54.332;48.386;2023-03-01T14:38:05;6.57;;;3.17;;
38529;SDS011;24301;54.332;48.386;2023-03-01T14:40:32;6.03;;;2.00;;
38529;SDS011;24301;54.332;48.386;2023-03-01T14:43:08;4.87;;;2.07;;
38529;SDS011;24301;54.332;48.386;2023-03-01T14:45:39;6.43;;;2.93;;
38529;SDS011;24301;54.332;48.386;2023-03-01T14:48:17;6.70;;;2.40;;
38529;SDS011;24301;54.332;48.386;2023-03-01T14:50:49;8.37;;;1.97;;
38529;SDS011;24301;54.332;48.386;2023-03-01T14:53:26;5.67;;;2.00;;
38529;SDS011;24301;54.332;48.386;2023-03-01T14:56:01;6.27;;;2.13;;
38529;SDS011;24301;54.332;48.386;2023-03-01T14:58:31;5.73;;;2.10;;
38529;SDS011;24301;54.332;48.386;2023-03-01T15:01:22;4.63;;;2.33;;
38529;SDS011;24301;54.332;48.386;2023-03-01T15:04:41;5.90;;;2.30;;
38529;SDS011;24301;54.332;48.386;2023-03-01T15:10:22;2.43;;;1.70;;
38529;SDS011;24301;54.332;48.386;2023-03-01T15:13:11;6.17;;;2.17;;
38529;SDS011;24301;54.332;48.386;2023-03-01T15:16:19;5.97;;;2.73;;
38529;SDS011;24301;54.332;48.386;2023-03-01T15:21:48;7.20;;;2.07;;
38529;SDS011;24301;54.332;48.386;2023-03-01T15:24:33;3.40;;;2.10;;
38529;SDS011;24301;54.332;48.386;2023-03-01T15:27:17;9.93;;;2.83;;
38529;SDS011;24301;54.332;48.386;2023-03-01T15:29:52;6.97;;;3.57;;
38529;SDS011;24301;54.332;48.386;2023-03-01T15:32:31;4.35;;;1.58;;
38529;SDS011;24301;54.332;48.386;2023-03-01T15:38:27;3.27;;;1.83;;
38529;SDS011;24301;54.332;48.386;2023-03-01T15:41:22;4.50;;;1.93;;
38529;SDS011;24301;54.332;48.386;2023-03-01T15:43:59;2.50;;;1.20;;
38529;SDS011;24301;54.332;48.386;2023-03-01T15:46:39;3.60;;;1.40;;
38529;SDS011;24301;54.332;48.386;2023-03-01T15:49:25;2.87;;;1.50;;
38529;SDS011;24301;54.332;48.386;2023-03-01T15:52:10;3.90;;;1.30;;
38529;SDS011;24301;54.332;48.386;2023-03-01T15:54:53;3.43;;;1.10;;
38529;SDS011;24301;54.332;48.386;2023-03-01T15:57:22;3.63;;;1.80;;
38529;SDS011;24301;54.332;48.386;2023-03-01T15:59:54;1.27;;;1.17;;
38529;SDS011;24301;54.332;48.386;2023-03-01T16:02:20;2.30;;;1.60;;
38529;SDS011;24301;54.332;48.386;2023-03-01T16:05:00;3.00;;;1.60;;
38529;SDS011;24301;54.332;48.386;2023-03-01T16:07:28;3.73;;;1.80;;
38529;SDS011;24301;54.332;48.386;2023-03-01T16:10:05;8.83;;;3.40;;
38529;SDS011;24301;54.332;48.386;2023-03-01T16:12:34;2.83;;;1.60;;
38529;SDS011;24301;54.332;48.386;2023-03-01T16:15:28;4.70;;;1.40;;
38529;SDS011;24301;54.332;48.386;2023-03-01T16:17:59;2.63;;;1.40;;
38529;SDS011;24301;54.332;48.386;2023-03-01T16:20:59;4.53;;;1.83;;
38529;SDS011;24301;54.332;48.386;2023-03-01T16:23:47;4.27;;;1.50;;
38529;SDS011;24301;54.332;48.386;2023-03-01T16:26:31;7.13;;;1.77;;
38529;SDS011;24301;54.332;48.386;2023-03-01T16:29:07;1.97;;;1.30;;
38529;SDS011;24301;54.332;48.386;2023-03-01T16:31:42;3.15;;;1.20;;
38529;SDS011;24301;54.332;48.386;2023-03-01T16:34:10;3.00;;;1.50;;
38529;SDS011;24301;54.332;48.386;2023-03-01T16:36:36;2.87;;;1.60;;
38529;SDS011;24301;54.332;48.386;2023-03-01T16:39:02;2.60;;;1.40;;
38529;SDS011;24301;54.332;48.386;2023-03-01T16:41:40;4.30;;;1.67;;
38529;SDS011;24301;54.332;48.386;2023-03-01T16:44:06;3.67;;;1.77;;
38529;SDS011;24301;54.332;48.386;2023-03-01T16:46:44;2.50;;;1.67;;
38529;SDS011;24301;54.332;48.386;2023-03-01T16:49:10;4.90;;;2.20;;
38529;SDS011;24301;54.332;48.386;2023-03-01T16:51:36;4.63;;;1.63;;
38529;SDS011;24301;54.332;48.386;2023-03-01T16:54:10;2.47;;;1.53;;
38529;SDS011;24301;54.332;48.386;2023-03-01T16:56:36;3.03;;;2.07;;
38529;SDS011;24301;54.332;48.386;2023-03-01T16:59:13;2.50;;;1.57;;
38529;SDS011;24301;54.332;48.386;2023-03-01T17:01:42;3.23;;;1.60;;
38529;SDS011;24301;54.332;48.386;2023-03-01T17:04:10;6.80;;;2.50;;
38529;SDS011;24301;54.332;48.386;2023-03-01T17:06:49;3.77;;;1.57;;
38529;SDS011;24301;54.332;48.386;2023-03-01T17:09:24;2.93;;;1.70;;
38529;SDS011;24301;54.332;48.386;2023-03-01T17:11:55;3.27;;;1.60;;
38529;SDS011;24301;54.332;48.386;2023-03-01T17:14:34;2.43;;;1.40;;
38529;SDS011;24301;54.332;48.386;2023-03-01T17:17:03;5.37;;;1.97;;
38529;SDS011;24301;54.332;48.386;2023-03-01T17:19:29;6.60;;;2.57;;